Time;durP1;ratioP1;P1;durP2;ratioP2;P2;SDS_P1;SDS_P2;PMS_P1;PMS_P2;Temp;Humidity;BMP_temperature;BMP_pressure;BME280_temperature;BME280_humidity;BME280_pressure;Samples;Min_cycle;Max_cycle;Signal;HPM_P1;HPM_P2
2021/08/14 00:05:00;;;;;;;8.60;7.60;;;26.30;37.90;;;;;;10407353;28;20229;-75
2021/08/14 00:10:05;;;;;;;9.17;7.57;;;26.30;37.30;;;;;;10407255;28;20254;-75
2021/08/14 00:15:12;;;;;;;9.40;8.30;;;26.20;37.30;;;;;;10408027;28;20245;-75
2021/08/14 00:20:15;;;;;;;10.07;8.23;;;26.20;38.30;;;;;;10407487;28;20233;-75
2021/08/14 00:25:18;;;;;;;9.93;8.93;;;26.10;37.50;;;;;;10406802;28;20244;-75
2021/08/14 00:30:23;;;;;;;10.17;8.97;;;26.10;37.60;;;;;;10406545;28;20242;-74
2021/08/14 00:35:27;;;;;;;9.43;8.53;;;26.00;38.20;;;;;;10407046;28;20229;-76
2021/08/14 00:40:30;;;;;;;11.70;8.93;;;26.00;37.90;;;;;;10406594;28;20248;-75
2021/08/14 00:45:38;;;;;;;9.20;8.40;;;25.90;38.00;;;;;;10406429;28;20225;-76
2021/08/14 00:50:41;;;;;;;10.17;8.50;;;25.80;39.30;;;;;;10406426;28;20236;-75
2021/08/14 00:55:45;;;;;;;8.20;7.47;;;25.70;38.60;;;;;;10406209;28;20233;-74
2021/08/14 01:00:50;;;;;;;8.53;7.73;;;25.60;38.80;;;;;;10406079;28;20244;-75
2021/08/14 01:05:53;;;;;;;9.37;8.23;;;25.60;39.30;;;;;;10406013;28;20230;-75
2021/08/14 01:10:56;;;;;;;7.40;6.70;;;25.60;38.80;;;;;;10405516;28;20722;-76
2021/08/14 01:16:01;;;;;;;9.23;8.33;;;25.60;38.70;;;;;;10405768;28;20718;-75
2021/08/14 01:21:04;;;;;;;11.60;7.97;;;25.60;39.40;;;;;;10404997;28;20312;-76
2021/08/14 01:26:09;;;;;;;9.07;8.17;;;25.60;38.90;;;;;;10405322;28;20225;-75
2021/08/14 01:31:14;;;;;;;9.30;8.27;;;25.50;39.40;;;;;;10403413;28;20230;-75
2021/08/14 01:36:18;;;;;;;9.17;8.47;;;25.50;39.80;;;;;;10405458;28;20324;-74
2021/08/14 01:41:22;;;;;;;9.77;8.90;;;25.40;39.50;;;;;;10404434;28;20247;-76
2021/08/14 01:46:29;;;;;;;9.63;8.73;;;25.20;40.00;;;;;;10404946;28;20237;-75
2021/08/14 01:51:33;;;;;;;9.50;8.67;;;25.10;41.00;;;;;;10404736;28;20705;-74
2021/08/14 01:56:36;;;;;;;9.60;8.80;;;25.10;40.30;;;;;;10404999;28;20234;-76
2021/08/14 02:01:41;;;;;;;9.53;8.77;;;25.10;40.30;;;;;;10404673;28;20243;-76
2021/08/14 02:06:44;;;;;;;9.67;8.67;;;25.10;41.00;;;;;;10404807;28;20221;-75
2021/08/14 02:11:47;;;;;;;10.70;8.97;;;25.00;40.90;;;;;;10404531;28;20233;-76
2021/08/14 02:16:52;;;;;;;9.87;8.67;;;25.10;41.00;;;;;;10403826;28;20229;-76
2021/08/14 02:21:55;;;;;;;9.60;8.60;;;25.00;41.10;;;;;;10388283;28;20235;-75
2021/08/14 02:27:00;;;;;;;10.00;8.63;;;25.00;40.90;;;;;;10363117;28;20249;-75
2021/08/14 02:32:05;;;;;;;9.77;8.47;;;25.00;40.90;;;;;;10365345;28;20241;-76
2021/08/14 02:37:08;;;;;;;9.13;8.33;;;25.00;41.30;;;;;;10370903;28;20242;-76
2021/08/14 02:42:12;;;;;;;9.13;8.23;;;25.10;41.00;;;;;;10370369;28;20242;-74
2021/08/14 02:47:16;;;;;;;8.53;7.73;;;25.10;41.00;;;;;;10370175;28;20723;-75
2021/08/14 02:52:19;;;;;;;9.23;8.40;;;25.10;41.10;;;;;;10369634;28;20242;-75
2021/08/14 02:57:23;;;;;;;10.20;8.90;;;25.10;41.00;;;;;;10369174;28;20230;-75
2021/08/14 03:02:28;;;;;;;12.00;8.77;;;25.10;41.00;;;;;;10369378;28;20783;-76
2021/08/14 03:07:32;;;;;;;8.90;8.00;;;25.10;41.50;;;;;;10369381;28;20276;-75
2021/08/14 03:12:35;;;;;;;9.27;8.23;;;25.10;41.00;;;;;;10368206;28;20230;-74
2021/08/14 03:17:41;;;;;;;8.33;7.67;;;25.10;41.00;;;;;;10368338;28;20232;-76
2021/08/14 03:22:44;;;;;;;9.00;8.20;;;25.00;41.50;;;;;;10367972;28;20722;-76
2021/08/14 03:27:47;;;;;;;9.97;9.00;;;25.10;41.50;;;;;;10367665;28;20235;-76
2021/08/14 03:32:52;;;;;;;9.73;8.83;;;25.00;41.50;;;;;;10367577;28;20239;-76
2021/08/14 03:37:56;;;;;;;9.93;9.03;;;25.00;42.30;;;;;;10367527;28;20276;-75
2021/08/14 03:43:00;;;;;;;9.97;8.97;;;24.90;41.60;;;;;;10364746;28;20231;-75
2021/08/14 03:48:05;;;;;;;9.43;8.50;;;24.90;41.80;;;;;;10366546;28;20652;-76
2021/08/14 03:53:08;;;;;;;10.50;7.60;;;24.90;42.30;;;;;;10366624;28;20254;-76
2021/08/14 03:58:12;;;;;;;9.13;8.37;;;24.90;41.80;;;;;;10367081;28;20256;-75
2021/08/14 04:03:16;;;;;;;10.63;9.17;;;24.90;42.00;;;;;;10366912;28;20794;-75
2021/08/14 04:08:19;;;;;;;8.07;7.30;;;24.90;42.60;;;;;;10366831;28;20238;-74
2021/08/14 04:13:23;;;;;;;9.63;8.63;;;24.90;41.80;;;;;;10367477;28;20558;-74
2021/08/14 04:18:27;;;;;;;10.23;9.27;;;24.90;42.00;;;;;;10367029;28;20615;-75
2021/08/14 04:23:32;;;;;;;9.80;9.00;;;24.90;42.80;;;;;;10366744;28;20226;-75
2021/08/14 04:28:36;;;;;;;9.00;8.10;;;24.90;42.30;;;;;;10366733;28;20237;-75
2021/08/14 04:33:40;;;;;;;9.77;8.87;;;24.80;42.30;;;;;;10366336;28;20248;-75
2021/08/14 04:38:43;;;;;;;10.17;9.17;;;24.80;42.80;;;;;;10366148;28;20226;-74
2021/08/14 04:43:46;;;;;;;9.10;8.20;;;24.80;42.40;;;;;;10366002;28;20240;-75
2021/08/14 04:48:51;;;;;;;9.70;8.80;;;24.70;42.20;;;;;;10365833;28;20941;-75
2021/08/14 04:53:54;;;;;;;9.53;8.53;;;24.70;43.00;;;;;;10359869;28;20246;-74
2021/08/14 04:58:58;;;;;;;9.50;8.20;;;24.70;42.60;;;;;;10364860;28;20237;-75
2021/08/14 05:04:03;;;;;;;9.37;8.57;;;24.60;42.80;;;;;;10341255;28;20265;-75
2021/08/14 05:09:06;;;;;;;10.40;8.03;;;24.60;43.40;;;;;;10324208;28;20243;-74
2021/08/14 05:14:10;;;;;;;9.70;8.67;;;24.60;43.10;;;;;;10324366;28;20253;-75
2021/08/14 05:19:14;;;;;;;9.70;8.40;;;24.60;43.20;;;;;;10323937;28;20609;-74
2021/08/14 05:24:18;;;;;;;9.73;8.70;;;24.50;43.90;;;;;;10357592;28;20238;-75
2021/08/14 05:29:21;;;;;;;9.73;8.83;;;24.60;43.60;;;;;;10364333;28;20238;-75
2021/08/14 05:34:25;;;;;;;8.87;8.07;;;24.60;43.70;;;;;;10367041;28;20226;-75
2021/08/14 05:39:28;;;;;;;9.33;8.43;;;24.60;44.30;;;;;;10377403;28;20226;-75
2021/08/14 05:44:32;;;;;;;9.53;7.93;;;24.60;43.80;;;;;;10372959;28;20228;-75
2021/08/14 05:49:36;;;;;;;9.47;8.53;;;24.70;44.00;;;;;;10362651;28;20234;-75
2021/08/14 05:54:39;;;;;;;8.50;7.60;;;24.70;44.40;;;;;;10368331;28;20617;-75
2021/08/14 05:59:43;;;;;;;10.83;8.77;;;24.70;44.00;;;;;;10401429;28;20238;-75
2021/08/14 06:04:47;;;;;;;9.10;8.10;;;24.70;44.20;;;;;;10375723;28;20245;-74
2021/08/14 06:09:51;;;;;;;8.47;7.67;;;24.80;44.70;;;;;;10371740;28;20233;-75
2021/08/14 06:14:54;;;;;;;8.77;8.07;;;24.90;44.20;;;;;;10370367;28;20230;-76
2021/08/14 06:19:59;;;;;;;9.50;7.97;;;24.90;44.30;;;;;;10369544;28;20238;-74
2021/08/14 06:25:02;;;;;;;9.63;8.80;;;25.00;44.60;;;;;;10367554;28;20272;-75
2021/08/14 06:30:07;;;;;;;9.43;8.57;;;25.10;44.20;;;;;;10370867;28;20249;-76
2021/08/14 06:35:12;;;;;;;10.73;9.07;;;25.20;44.50;;;;;;10367177;28;20613;-75
2021/08/14 06:40:16;;;;;;;8.30;7.50;;;25.30;44.70;;;;;;10365417;28;20231;-75
2021/08/14 06:45:19;;;;;;;8.30;7.50;;;25.40;43.40;;;;;;10365053;28;20233;-75
2021/08/14 06:50:24;;;;;;;9.23;8.13;;;25.50;42.70;;;;;;10363117;28;20245;-76
2021/08/14 06:55:27;;;;;;;7.93;7.23;;;25.60;42.20;;;;;;10403903;28;20737;-75
2021/08/14 07:00:31;;;;;;;8.40;7.60;;;25.70;42.40;;;;;;10405764;28;20233;-75
2021/08/14 07:05:38;;;;;;;8.40;7.60;;;25.70;42.10;;;;;;10374416;28;20309;-75
2021/08/14 07:10:41;;;;;;;8.67;7.83;;;25.90;42.00;;;;;;10362613;28;20253;-74
2021/08/14 07:15:44;;;;;;;9.20;8.30;;;26.00;42.20;;;;;;10363253;28;20632;-75
2021/08/14 07:20:49;;;;;;;8.70;7.73;;;26.10;41.60;;;;;;10364272;28;21019;-75
2021/08/14 07:25:52;;;;;;;8.70;7.90;;;26.20;41.70;;;;;;10365873;28;20226;-75
2021/08/14 07:30:56;;;;;;;8.53;7.73;;;26.30;41.80;;;;;;10354984;28;20796;-74
2021/08/14 07:36:01;;;;;;;8.53;7.83;;;26.40;41.80;;;;;;10367793;28;20797;-73
2021/08/14 07:41:04;;;;;;;7.87;7.17;;;26.50;41.50;;;;;;10371711;28;20229;-73
2021/08/14 07:46:10;;;;;;;7.77;7.10;;;26.70;42.00;;;;;;10362685;28;20236;-73
2021/08/14 07:51:15;;;;;;;8.07;7.40;;;26.80;42.00;;;;;;10381047;28;20242;-74
2021/08/14 07:56:18;;;;;;;8.67;7.87;;;27.00;41.80;;;;;;10343863;28;20604;-74
2021/08/14 08:01:22;;;;;;;8.40;7.77;;;27.20;41.50;;;;;;10351613;28;20242;-73
2021/08/14 08:06:27;;;;;;;8.97;8.17;;;27.40;41.00;;;;;;10359111;28;20730;-73
2021/08/14 08:11:30;;;;;;;7.63;6.87;;;27.60;40.30;;;;;;10362021;28;20257;-74
2021/08/14 08:16:33;;;;;;;7.60;6.90;;;27.80;40.20;;;;;;10355904;28;20234;-75
2021/08/14 08:21:38;;;;;;;7.17;6.57;;;28.00;39.70;;;;;;10356740;28;20241;-74
2021/08/14 08:26:41;;;;;;;8.13;7.43;;;28.20;39.30;;;;;;10367428;28;20256;-75
2021/08/14 08:31:44;;;;;;;7.43;6.83;;;28.50;39.40;;;;;;10360417;28;20230;-77
2021/08/14 08:36:49;;;;;;;8.23;6.80;;;28.70;38.90;;;;;;10371977;28;20225;-76
2021/08/14 08:41:53;;;;;;;7.97;7.17;;;28.90;37.90;;;;;;10390439;28;20785;-75
2021/08/14 08:46:56;;;;;;;6.40;5.80;;;29.00;36.90;;;;;;10360298;28;20230;-75
2021/08/14 08:52:01;;;;;;;6.63;6.13;;;29.20;36.70;;;;;;10364067;28;20231;-74
2021/08/14 08:57:05;;;;;;;6.87;6.37;;;29.40;35.40;;;;;;10358059;28;20229;-73
2021/08/14 09:02:22;;;;;;;6.30;5.70;;;29.50;35.70;;;;;;10359555;28;20244;-73
2021/08/14 09:07:29;;;;;;;6.23;5.73;;;29.70;34.60;;;;;;10367063;28;20241;-73
2021/08/14 09:12:35;;;;;;;6.87;6.03;;;29.90;33.30;;;;;;10354736;28;20227;-73
2021/08/14 09:17:38;;;;;;;6.40;5.37;;;30.00;33.60;;;;;;10365995;28;20718;-74
2021/08/14 09:22:48;;;;;;;6.20;5.70;;;30.20;34.00;;;;;;10365908;28;20242;-72
2021/08/14 09:27:57;;;;;;;6.73;6.03;;;30.30;31.80;;;;;;10376999;28;20226;-73
2021/08/14 09:33:08;;;;;;;6.43;5.83;;;30.50;31.90;;;;;;10348964;28;20247;-73
2021/08/14 09:38:14;;;;;;;6.63;6.10;;;30.60;30.70;;;;;;10359473;28;20234;-74
2021/08/14 09:43:34;;;;;;;8.87;6.83;;;30.70;32.00;;;;;;10368001;28;20245;-74
2021/08/14 09:48:37;;;;;;;6.83;6.23;;;30.70;30.40;;;;;;10366044;28;20288;-73
2021/08/14 09:53:53;;;;;;;8.40;7.00;;;30.70;32.00;;;;;;10377790;28;20733;-73
2021/08/14 09:58:57;;;;;;;7.07;6.57;;;30.80;30.60;;;;;;10390370;28;20232;-71
2021/08/14 10:04:01;;;;;;;6.90;6.37;;;30.90;32.10;;;;;;10370707;28;20232;-73
2021/08/14 10:09:06;;;;;;;7.20;6.20;;;31.00;31.60;;;;;;10384441;28;20260;-73
2021/08/14 10:14:11;;;;;;;6.80;6.20;;;31.10;31.00;;;;;;10358081;28;20242;-72
2021/08/14 10:19:15;;;;;;;7.07;6.53;;;31.20;31.30;;;;;;10354309;28;20268;-71
2021/08/14 10:24:20;;;;;;;6.80;6.20;;;31.40;31.00;;;;;;10360094;28;20581;-70
2021/08/14 10:29:42;;;;;;;6.67;6.17;;;31.50;29.90;;;;;;10356920;28;20230;-71
2021/08/14 10:34:45;;;;;;;7.20;6.30;;;31.70;28.10;;;;;;10359775;28;20227;-71
2021/08/14 10:39:55;;;;;;;6.83;6.33;;;31.80;30.00;;;;;;10366345;28;20283;-71
2021/08/14 10:45:13;;;;;;;7.23;6.60;;;31.90;29.10;;;;;;10354467;28;20245;-71
2021/08/14 10:51:05;;;;;;;7.30;6.60;;;32.00;29.30;;;;;;10361856;28;20237;-70
2021/08/14 10:56:10;;;;;;;6.77;6.17;;;32.10;28.80;;;;;;10352954;28;20231;-70
2021/08/14 11:01:33;;;;;;;6.80;6.30;;;32.30;29.00;;;;;;10363278;28;20242;-71
2021/08/14 11:06:37;;;;;;;6.87;6.27;;;32.50;29.30;;;;;;10359578;28;21066;-71
2021/08/14 11:11:41;;;;;;;7.13;6.47;;;32.70;29.50;;;;;;10375967;28;20332;-71
2021/08/14 11:16:59;;;;;;;7.10;6.50;;;32.80;28.00;;;;;;10367771;28;20244;-71
2021/08/14 11:22:19;;;;;;;7.00;6.40;;;32.90;28.10;;;;;;10362896;28;20226;-71
2021/08/14 11:27:26;;;;;;;7.03;6.43;;;32.90;27.40;;;;;;10360162;28;20309;-70
2021/08/14 11:32:30;;;;;;;6.70;6.20;;;32.90;27.00;;;;;;10368452;28;20973;-71
2021/08/14 11:37:48;;;;;;;7.03;6.43;;;32.90;27.30;;;;;;10371129;28;20316;-71
2021/08/14 11:42:57;;;;;;;7.17;6.60;;;32.90;25.70;;;;;;10368117;28;20788;-70
2021/08/14 11:48:04;;;;;;;6.90;6.33;;;32.90;27.10;;;;;;10365502;28;20259;-71
2021/08/14 11:53:09;;;;;;;7.07;6.50;;;32.90;26.90;;;;;;10352430;28;20234;-71
2021/08/14 11:58:14;;;;;;;6.80;6.20;;;32.90;27.00;;;;;;10361005;28;20234;-71
2021/08/14 12:03:17;;;;;;;6.60;6.00;;;33.10;27.00;;;;;;10348782;28;20234;-73
2021/08/14 12:08:29;;;;;;;7.27;6.57;;;33.10;27.30;;;;;;10346722;28;20277;-71
2021/08/14 12:13:34;;;;;;;7.03;6.43;;;33.30;26.90;;;;;;10353514;28;20321;-72
2021/08/14 12:18:38;;;;;;;6.70;6.17;;;33.30;26.00;;;;;;10350001;28;20230;-72
2021/08/14 12:23:43;;;;;;;6.80;6.30;;;33.10;25.60;;;;;;10359698;28;20234;-72
2021/08/14 12:28:59;;;;;;;6.30;5.80;;;33.00;26.00;;;;;;10352487;28;20231;-72
2021/08/14 12:34:02;;;;;;;6.90;6.20;;;32.90;25.40;;;;;;10339627;28;20300;-74
2021/08/14 12:39:08;;;;;;;6.73;6.13;;;32.90;26.30;;;;;;10356498;28;20245;-72
2021/08/14 12:44:12;;;;;;;6.60;6.03;;;33.00;26.30;;;;;;10346424;28;20790;-73
2021/08/14 12:49:21;;;;;;;6.77;6.27;;;33.00;25.70;;;;;;10346805;28;20234;-72
2021/08/14 12:54:24;;;;;;;7.00;6.50;;;32.90;25.50;;;;;;10360183;28;20253;-73
2021/08/14 12:59:29;;;;;;;7.23;6.17;;;32.90;25.80;;;;;;10357108;28;20234;-72
2021/08/14 13:04:32;;;;;;;7.10;6.40;;;32.90;25.60;;;;;;10355466;28;20234;-72
2021/08/14 13:09:36;;;;;;;7.20;6.60;;;32.90;26.40;;;;;;10362197;28;20230;-72
2021/08/14 13:14:41;;;;;;;7.57;6.77;;;32.90;25.80;;;;;;10363086;28;20230;-71
2021/08/14 13:19:44;;;;;;;7.47;6.00;;;33.00;25.50;;;;;;10356104;28;20230;-73
2021/08/14 13:24:47;;;;;;;6.33;5.83;;;33.00;25.80;;;;;;10353312;28;20241;-72
2021/08/14 13:29:52;;;;;;;7.10;6.40;;;33.10;25.90;;;;;;10348503;28;20238;-72
2021/08/14 13:34:55;;;;;;;7.30;6.60;;;33.10;25.10;;;;;;10355960;28;20230;-72
2021/08/14 13:39:58;;;;;;;6.83;6.23;;;33.10;25.50;;;;;;10362891;28;20237;-72
2021/08/14 13:45:04;;;;;;;6.90;6.30;;;33.10;25.60;;;;;;10361472;28;20242;-73
2021/08/14 13:50:09;;;;;;;6.90;6.20;;;33.20;25.20;;;;;;10354262;28;20230;-73
2021/08/14 13:55:12;;;;;;;9.00;6.57;;;33.30;25.10;;;;;;10354631;28;20321;-73
2021/08/14 14:00:18;;;;;;;7.30;6.60;;;33.40;25.40;;;;;;10354610;28;20723;-73
2021/08/14 14:05:21;;;;;;;7.47;6.47;;;33.40;24.80;;;;;;10357106;28;20245;-72
2021/08/14 14:10:24;;;;;;;7.13;6.53;;;33.50;25.20;;;;;;10356369;28;20245;-71
2021/08/14 14:15:29;;;;;;;6.93;6.43;;;33.60;24.80;;;;;;10358461;28;20234;-72
2021/08/14 14:20:34;;;;;;;7.83;7.03;;;33.60;24.80;;;;;;10358152;28;20280;-72
2021/08/14 14:25:38;;;;;;;8.40;6.77;;;33.60;24.80;;;;;;10358468;28;20240;-72
2021/08/14 14:30:44;;;;;;;7.83;5.83;;;33.50;24.30;;;;;;10371690;28;20234;-74
2021/08/14 14:35:47;;;;;;;7.30;6.70;;;33.50;23.90;;;;;;10364831;28;20240;-72
2021/08/14 14:40:50;;;;;;;6.37;5.87;;;33.40;24.60;;;;;;10366039;28;20288;-71
2021/08/14 14:45:55;;;;;;;6.77;6.27;;;33.50;24.60;;;;;;10356825;28;20637;-71
2021/08/14 14:50:59;;;;;;;6.37;5.70;;;33.50;24.10;;;;;;10365897;28;20234;-70
2021/08/14 14:56:02;;;;;;;7.63;6.23;;;33.60;24.50;;;;;;10351025;28;20253;-72
2021/08/14 15:01:07;;;;;;;7.03;6.37;;;33.50;24.10;;;;;;10365092;28;20622;-72
2021/08/14 15:06:11;;;;;;;6.90;6.20;;;33.50;24.00;;;;;;10367630;28;20275;-71
2021/08/14 15:11:14;;;;;;;6.80;6.20;;;33.50;24.40;;;;;;10351538;28;20238;-72
2021/08/14 15:16:19;;;;;;;6.67;6.07;;;33.60;24.20;;;;;;10367716;28;20234;-72
2021/08/14 15:21:22;;;;;;;6.60;6.00;;;33.60;24.20;;;;;;10357610;28;20238;-71
2021/08/14 15:26:25;;;;;;;6.80;6.20;;;33.60;24.30;;;;;;10359007;28;20233;-71
2021/08/14 15:31:30;;;;;;;7.00;6.40;;;33.60;24.20;;;;;;10356918;28;20237;-72
2021/08/14 15:36:33;;;;;;;6.70;6.10;;;33.70;23.90;;;;;;10367282;28;20256;-71
2021/08/14 15:41:37;;;;;;;6.77;6.10;;;33.80;23.60;;;;;;10365203;28;20260;-71
2021/08/14 15:46:41;;;;;;;6.90;6.20;;;33.80;23.80;;;;;;10341680;28;20230;-71
2021/08/14 15:51:44;;;;;;;7.57;6.47;;;33.70;23.50;;;;;;10367489;28;20719;-71
2021/08/14 15:56:48;;;;;;;8.17;6.47;;;33.60;23.60;;;;;;10358304;28;20232;-71
2021/08/14 16:01:52;;;;;;;7.17;6.57;;;33.60;24.10;;;;;;10367252;28;20230;-71
2021/08/14 16:06:56;;;;;;;7.03;6.47;;;33.60;23.70;;;;;;10356484;28;20230;-71
2021/08/14 16:12:00;;;;;;;8.40;6.47;;;33.50;23.90;;;;;;10361775;28;20253;-70
2021/08/14 16:17:05;;;;;;;8.00;6.37;;;33.50;23.70;;;;;;10349417;28;20601;-70
2021/08/14 16:22:08;;;;;;;6.40;5.90;;;33.50;23.10;;;;;;10363302;28;20596;-71
2021/08/14 16:27:12;;;;;;;8.63;6.63;;;33.50;23.70;;;;;;10352096;28;20608;-70
2021/08/14 16:32:16;;;;;;;7.47;6.13;;;33.60;23.70;;;;;;10362105;28;20242;-71
2021/08/14 16:37:19;;;;;;;6.30;5.80;;;33.60;23.50;;;;;;10340300;28;20273;-70
2021/08/14 16:42:23;;;;;;;7.77;6.40;;;33.60;23.40;;;;;;10346504;28;20240;-71
2021/08/14 16:47:28;;;;;;;6.93;6.33;;;33.70;23.40;;;;;;10360839;28;20695;-70
2021/08/14 16:52:31;;;;;;;7.43;6.60;;;33.60;23.00;;;;;;10354902;28;20234;-70
2021/08/14 16:57:34;;;;;;;6.87;6.17;;;33.60;23.30;;;;;;10358948;28;20230;-70
2021/08/14 17:02:39;;;;;;;7.47;6.67;;;33.60;23.60;;;;;;10363765;28;20325;-71
2021/08/14 17:07:43;;;;;;;6.93;6.33;;;33.60;23.30;;;;;;10360416;28;20751;-70
2021/08/14 17:12:47;;;;;;;9.20;8.40;;;33.60;23.50;;;;;;10354379;28;20235;-70
2021/08/14 17:17:52;;;;;;;7.63;6.93;;;33.60;23.80;;;;;;10342503;28;20242;-70
2021/08/14 17:22:55;;;;;;;6.77;6.20;;;33.70;24.00;;;;;;10355836;28;20237;-71
2021/08/14 17:27:59;;;;;;;6.37;5.77;;;33.70;23.90;;;;;;10354165;28;20601;-71
2021/08/14 17:33:05;;;;;;;7.57;6.83;;;33.70;24.30;;;;;;10346087;28;20832;-71
2021/08/14 17:38:08;;;;;;;6.83;5.93;;;33.80;24.10;;;;;;10351719;28;20321;-70
2021/08/14 17:43:11;;;;;;;6.20;5.70;;;33.70;24.00;;;;;;10346751;28;20238;-71
2021/08/14 17:48:16;;;;;;;7.03;6.13;;;33.70;24.70;;;;;;10355309;28;20241;-71
2021/08/14 17:53:19;;;;;;;6.27;5.77;;;33.60;24.70;;;;;;10344779;28;20243;-69
2021/08/14 17:58:22;;;;;;;6.77;6.00;;;33.60;24.70;;;;;;10350861;28;20241;-71
2021/08/14 18:03:27;;;;;;;6.40;5.83;;;33.40;24.90;;;;;;10355906;28;20234;-71
2021/08/14 18:08:30;;;;;;;6.83;6.33;;;33.30;25.40;;;;;;10363084;28;20911;-71
2021/08/14 18:13:34;;;;;;;7.27;6.57;;;33.20;25.30;;;;;;10357405;28;20231;-71
2021/08/14 18:18:40;;;;;;;6.57;5.87;;;33.10;25.60;;;;;;10359024;28;20245;-71
2021/08/14 18:23:43;;;;;;;7.17;6.47;;;33.00;25.80;;;;;;10355031;28;20277;-71
2021/08/14 18:28:48;;;;;;;8.83;7.97;;;32.80;25.90;;;;;;10366351;28;20617;-70
2021/08/14 18:33:59;;;;;;;10.03;9.03;;;32.60;25.90;;;;;;10362024;28;20227;-70
2021/08/14 18:39:05;;;;;;;8.80;8.00;;;32.50;26.40;;;;;;10355110;28;20309;-71
2021/08/14 18:44:08;;;;;;;7.57;6.97;;;32.30;26.20;;;;;;10362911;28;20237;-71
2021/08/14 18:49:16;;;;;;;7.17;6.47;;;32.20;26.40;;;;;;10358664;28;20593;-71
2021/08/14 18:54:19;;;;;;;7.17;6.47;;;32.10;26.60;;;;;;10369714;28;20240;-71
2021/08/14 18:59:23;;;;;;;8.00;7.20;;;31.90;26.50;;;;;;10359070;28;20254;-71
2021/08/14 19:04:30;;;;;;;7.10;6.50;;;31.80;26.70;;;;;;10350348;28;20246;-70
2021/08/14 19:09:34;;;;;;;6.70;6.20;;;31.60;27.00;;;;;;10367237;28;20230;-71
2021/08/14 19:14:42;;;;;;;7.83;6.90;;;31.50;26.90;;;;;;10359413;28;20233;-71
2021/08/14 19:19:48;;;;;;;7.80;7.10;;;31.30;27.10;;;;;;10358515;28;20313;-71
2021/08/14 19:24:52;;;;;;;7.83;7.03;;;31.20;27.60;;;;;;10353319;28;20241;-70
2021/08/14 19:29:55;;;;;;;7.00;6.30;;;31.00;27.70;;;;;;10359528;28;20230;-71
2021/08/14 19:35:05;;;;;;;7.37;6.77;;;31.00;27.70;;;;;;10356136;28;20723;-71
2021/08/14 19:40:09;;;;;;;7.73;7.03;;;30.80;28.00;;;;;;10361575;28;20234;-70
2021/08/14 19:45:13;;;;;;;7.90;7.20;;;30.70;27.80;;;;;;10357122;28;20238;-71
2021/08/14 19:50:22;;;;;;;9.40;7.30;;;30.60;27.80;;;;;;10356508;28;20598;-71
2021/08/14 19:55:25;;;;;;;7.73;6.67;;;30.40;28.10;;;;;;10353815;28;20318;-71
2021/08/14 20:00:29;;;;;;;10.57;8.40;;;30.10;28.00;;;;;;10354506;28;20253;-70
2021/08/14 20:05:33;;;;;;;9.37;8.47;;;29.80;28.40;;;;;;10351626;28;20242;-72
2021/08/14 20:10:37;;;;;;;7.90;7.20;;;29.60;29.10;;;;;;10356674;28;20234;-70
2021/08/14 20:15:42;;;;;;;10.00;9.13;;;29.50;29.00;;;;;;10357246;28;20314;-70
2021/08/14 20:20:46;;;;;;;12.83;11.57;;;29.40;29.30;;;;;;10352037;28;20225;-71
2021/08/14 20:25:49;;;;;;;11.17;10.07;;;29.30;30.00;;;;;;10356941;28;20310;-71
2021/08/14 20:30:53;;;;;;;9.50;8.43;;;29.00;29.70;;;;;;10354053;28;20239;-70
2021/08/14 20:36:00;;;;;;;7.70;7.00;;;28.80;30.00;;;;;;10352340;28;20230;-70
2021/08/14 20:41:03;;;;;;;10.10;9.20;;;28.60;30.60;;;;;;10352536;28;20226;-70
2021/08/14 20:46:06;;;;;;;11.40;10.20;;;28.40;30.50;;;;;;10362754;28;20247;-70
2021/08/14 20:51:12;;;;;;;10.23;9.30;;;28.30;30.40;;;;;;10358896;28;20245;-72
2021/08/14 20:56:15;;;;;;;10.10;8.83;;;28.20;31.80;;;;;;10347198;28;20599;-69
2021/08/14 21:01:19;;;;;;;9.80;8.83;;;28.10;31.30;;;;;;10354668;28;20246;-71
2021/08/14 21:06:24;;;;;;;10.47;9.23;;;28.00;31.60;;;;;;10355636;28;20345;-70
2021/08/14 21:11:27;;;;;;;10.87;9.77;;;28.00;32.40;;;;;;10354938;28;20260;-71
2021/08/14 21:16:33;;;;;;;9.53;8.63;;;28.00;31.90;;;;;;10353863;28;20231;-70
2021/08/14 21:21:38;;;;;;;8.87;8.13;;;27.80;32.30;;;;;;10357128;28;20230;-71
2021/08/14 21:26:41;;;;;;;9.73;8.20;;;27.70;33.30;;;;;;10350161;28;20233;-71
2021/08/14 21:31:45;;;;;;;10.83;9.13;;;27.50;32.60;;;;;;10351678;28;20222;-71
2021/08/14 21:36:50;;;;;;;9.90;8.67;;;27.20;33.00;;;;;;10351035;28;20230;-70
2021/08/14 21:41:54;;;;;;;8.30;7.60;;;27.10;34.00;;;;;;10345979;28;20684;-71
2021/08/14 21:46:57;;;;;;;8.83;8.03;;;27.10;33.70;;;;;;10351680;28;20237;-71
2021/08/14 21:52:02;;;;;;;8.73;7.93;;;27.00;33.90;;;;;;10355062;28;20261;-70
2021/08/14 21:57:05;;;;;;;9.23;8.33;;;27.10;34.80;;;;;;10361326;28;20218;-70
2021/08/14 22:02:08;;;;;;;10.50;9.60;;;27.10;34.00;;;;;;10362897;28;20756;-71
2021/08/14 22:07:13;;;;;;;11.00;9.93;;;27.10;34.00;;;;;;10365375;28;20710;-70
2021/08/14 22:12:16;;;;;;;10.50;9.57;;;27.00;34.70;;;;;;10347282;28;20326;-70
2021/08/14 22:17:19;;;;;;;9.20;8.30;;;27.00;34.20;;;;;;10350652;28;20321;-71
2021/08/14 22:22:24;;;;;;;10.37;9.27;;;27.00;34.00;;;;;;10359120;28;20254;-70
2021/08/14 22:27:27;;;;;;;9.53;8.73;;;26.90;35.10;;;;;;10356146;28;20234;-70
2021/08/14 22:32:31;;;;;;;9.13;8.23;;;26.80;34.60;;;;;;10358310;28;20249;-70
2021/08/14 22:37:49;;;;;;;8.70;7.80;;;26.70;34.70;;;;;;10366016;28;20716;-71
2021/08/14 22:42:53;;;;;;;8.73;7.87;;;26.60;35.70;;;;;;10362069;28;20640;-71
2021/08/14 22:47:56;;;;;;;13.47;8.13;;;26.50;35.20;;;;;;10361734;28;20233;-72
2021/08/14 22:53:04;;;;;;;9.37;8.47;;;26.60;35.40;;;;;;10360608;28;20277;-70
2021/08/14 22:58:09;;;;;;;9.60;8.80;;;26.60;36.20;;;;;;10378561;28;20226;-70
2021/08/14 23:03:13;;;;;;;10.73;9.33;;;26.60;36.20;;;;;;10359573;28;20261;-70
2021/08/14 23:08:16;;;;;;;9.77;8.73;;;26.50;35.50;;;;;;10359133;28;20231;-70
2021/08/14 23:13:21;;;;;;;8.67;7.73;;;26.40;35.50;;;;;;10366427;28;20343;-70
2021/08/14 23:18:24;;;;;;;9.40;8.50;;;26.40;36.30;;;;;;10366223;28;20231;-70
2021/08/14 23:23:28;;;;;;;7.73;7.03;;;26.40;36.00;;;;;;10362067;28;20227;-71
2021/08/14 23:28:32;;;;;;;10.73;9.27;;;26.30;35.80;;;;;;10360840;28;20235;-71
2021/08/14 23:33:37;;;;;;;9.47;8.57;;;26.30;36.70;;;;;;10366904;28;20717;-71
2021/08/14 23:38:40;;;;;;;8.87;8.07;;;26.20;36.60;;;;;;10369699;28;20245;-71
2021/08/14 23:43:43;;;;;;;9.47;8.67;;;26.20;36.20;;;;;;10359357;28;20230;-70
2021/08/14 23:48:48;;;;;;;9.47;8.57;;;26.20;36.40;;;;;;10373773;28;20229;-69
2021/08/14 23:53:53;;;;;;;10.67;9.73;;;26.20;37.20;;;;;;10368518;28;20236;-70
2021/08/14 23:58:57;;;;;;;9.27;8.47;;;26.20;37.30;;;;;;10363873;28;20223;-71
